createdAt,value
2023-03-20T00:06:37.375Z,8.31
2023-03-20T00:22:35.456Z,8.73
2023-03-20T00:27:27.180Z,8.64
2023-03-20T00:32:18.857Z,8.41
2023-03-20T00:37:11.667Z,8.40
2023-03-20T00:42:07.107Z,8.35
2023-03-20T00:47:03.148Z,8.37
2023-03-20T00:51:55.399Z,8.35
2023-03-20T00:57:11.002Z,8.41
2023-03-20T01:02:04.253Z,8.43
2023-03-20T01:06:56.349Z,8.44
2023-03-20T01:11:48.074Z,8.43
2023-03-20T01:16:40.094Z,8.43
2023-03-20T01:21:31.808Z,8.46
2023-03-20T01:26:36.089Z,8.42
2023-03-20T01:31:27.798Z,8.50
2023-03-20T01:36:23.736Z,8.54
2023-03-20T01:41:18.272Z,8.58
2023-03-20T01:46:24.663Z,8.64
2023-03-20T01:51:23.294Z,8.63
2023-03-20T01:56:17.782Z,8.66
2023-03-20T02:01:13.696Z,8.68
2023-03-20T02:06:07.489Z,8.73
2023-03-20T02:11:01.960Z,8.71
2023-03-20T02:16:09.874Z,8.69
2023-03-20T02:21:57.449Z,8.66
2023-03-20T02:27:32.371Z,8.67
2023-03-20T02:32:49.618Z,8.67
2023-03-20T02:38:09.043Z,8.83
2023-03-20T02:43:25.538Z,8.87
2023-03-20T02:48:56.635Z,9.00
2023-03-20T02:54:34.738Z,8.88
2023-03-20T02:59:47.880Z,8.89
2023-03-20T03:04:49.849Z,8.83
2023-03-20T03:09:53.328Z,8.79
2023-03-20T03:14:55.106Z,8.78
2023-03-20T03:19:55.013Z,8.76
2023-03-20T03:24:52.950Z,8.79
2023-03-20T03:29:53.864Z,8.81
2023-03-20T03:34:46.745Z,8.71
2023-03-20T03:39:53.692Z,8.64
2023-03-20T03:45:04.013Z,8.66
2023-03-20T03:50:05.551Z,8.66
2023-03-20T03:55:13.334Z,8.85
2023-03-20T04:05:21.210Z,8.83
2023-03-20T04:10:14.439Z,8.74
2023-03-20T04:15:07.547Z,8.69
2023-03-20T04:19:59.607Z,8.63
2023-03-20T04:24:52.594Z,8.61
2023-03-20T04:29:44.993Z,8.56
2023-03-20T04:34:37.042Z,8.55
2023-03-20T04:39:28.782Z,8.72
2023-03-20T04:44:20.476Z,8.66
2023-03-20T04:49:12.161Z,8.63
2023-03-20T05:04:16.891Z,8.39
2023-03-20T05:09:08.597Z,8.23
2023-03-20T05:14:00.281Z,8.16
2023-03-20T05:18:52.001Z,8.08
2023-03-20T05:23:43.814Z,8.00
2023-03-20T05:28:36.767Z,7.89
2023-03-20T05:33:28.451Z,7.86
2023-03-20T05:38:24.943Z,7.85
2023-03-20T05:43:16.881Z,7.93
2023-03-20T05:48:08.756Z,8.00
2023-03-20T05:53:00.885Z,8.08
2023-03-20T05:57:52.593Z,8.17
2023-03-20T06:02:47.138Z,8.25
2023-03-20T06:07:39.088Z,8.35
2023-03-20T06:12:30.811Z,8.45
2023-03-20T06:17:22.503Z,8.54
2023-03-20T06:22:14.173Z,8.58
2023-03-20T06:32:13.160Z,8.93
2023-03-20T06:37:04.836Z,9.07
2023-03-20T06:41:56.518Z,9.34
2023-03-20T06:46:48.228Z,9.56
2023-03-20T06:51:39.942Z,9.76
2023-03-20T06:56:32.273Z,9.85
2023-03-20T07:01:24.287Z,9.93
2023-03-20T07:11:24.028Z,10.12
2023-03-20T07:16:16.079Z,10.16
2023-03-20T07:21:16.676Z,10.25
2023-03-20T07:26:09.000Z,10.38
2023-03-20T07:31:00.825Z,10.44
2023-03-20T07:35:56.393Z,10.59
2023-03-20T07:45:56.764Z,11.14
2023-03-20T07:50:49.619Z,11.26
2023-03-20T07:55:43.347Z,11.23
2023-03-20T08:00:35.110Z,11.53
2023-03-20T08:05:27.648Z,11.89
2023-03-20T08:25:42.573Z,12.87
2023-03-20T08:35:40.886Z,12.67
2023-03-20T08:40:37.364Z,12.56
2023-03-20T08:45:29.139Z,12.84
2023-03-20T08:55:35.773Z,13.21
2023-03-20T09:05:37.346Z,13.16
2023-03-20T09:10:29.285Z,13.11
2023-03-20T09:25:39.389Z,13.17
2023-03-20T09:46:30.446Z,13.91
2023-03-20T10:59:28.913Z,14.15
2023-03-20T11:04:26.043Z,14.13
2023-03-20T11:14:39.772Z,14.50
2023-03-20T11:24:57.764Z,14.94
2023-03-20T11:29:52.860Z,15.23
2023-03-20T11:34:45.971Z,15.35
2023-03-20T11:39:41.878Z,15.47
2023-03-20T12:05:39.955Z,14.44
2023-03-20T12:15:59.998Z,14.41
2023-03-20T12:21:13.929Z,14.28
2023-03-20T12:31:58.322Z,14.31
2023-03-20T12:48:08.710Z,14.48
2023-03-20T12:53:25.803Z,14.55
2023-03-20T13:04:00.144Z,14.87
2023-03-20T13:09:23.876Z,14.81
2023-03-20T13:14:38.818Z,15.00
2023-03-20T13:31:27.404Z,14.90
2023-03-20T13:37:04.408Z,14.52
2023-03-20T13:42:18.738Z,14.65
2023-03-20T13:47:25.763Z,14.90
2023-03-20T13:58:37.067Z,15.33
2023-03-20T14:03:38.420Z,15.41
2023-03-20T14:08:46.466Z,15.40
2023-03-20T14:13:40.221Z,15.55
2023-03-20T14:34:18.228Z,16.02
2023-03-20T14:45:20.828Z,16.26
2023-03-20T14:55:59.914Z,15.64
2023-03-20T15:00:53.513Z,15.84
2023-03-20T15:11:07.336Z,15.25
2023-03-20T15:21:18.723Z,15.18
2023-03-20T15:31:40.901Z,14.62
2023-03-20T15:41:55.081Z,14.60
2023-03-20T15:52:32.164Z,14.66
2023-03-20T15:57:47.349Z,14.91
2023-03-20T16:02:41.757Z,14.79
2023-03-20T16:17:48.110Z,14.82
2023-03-20T16:22:48.970Z,14.64
2023-03-20T16:32:57.941Z,14.17
2023-03-20T16:48:44.024Z,13.76
2023-03-20T17:04:19.850Z,13.41
2023-03-20T17:09:23.402Z,13.30
2023-03-20T17:14:20.228Z,12.95
2023-03-20T17:19:20.135Z,12.74
2023-03-20T17:24:14.005Z,12.51
2023-03-20T17:34:23.180Z,12.11
2023-03-20T17:39:22.635Z,11.91
2023-03-20T17:44:15.168Z,11.72
2023-03-20T17:54:33.308Z,11.57
2023-03-20T17:59:29.083Z,11.43
2023-03-20T18:04:24.817Z,11.24
2023-03-20T18:09:17.757Z,11.11
2023-03-20T18:14:16.195Z,11.03
2023-03-20T18:19:28.769Z,10.94
2023-03-20T18:24:22.684Z,10.92
2023-03-20T18:29:15.448Z,10.89
2023-03-20T18:39:20.225Z,10.82
2023-03-20T18:44:13.838Z,10.79
2023-03-20T18:49:07.458Z,10.73
2023-03-20T19:04:14.485Z,10.92
2023-03-20T19:14:16.785Z,10.88
2023-03-20T19:19:15.888Z,10.82
2023-03-20T19:24:10.511Z,10.77
2023-03-20T19:34:36.872Z,10.75
2023-03-20T19:44:31.048Z,10.86
2023-03-20T19:49:30.972Z,10.80
2023-03-20T19:54:25.237Z,10.72
2023-03-20T20:04:27.689Z,10.55
2023-03-20T20:09:20.300Z,10.46
2023-03-20T20:14:14.914Z,10.33
2023-03-20T20:19:07.236Z,10.26
2023-03-20T20:23:58.938Z,10.22
2023-03-20T20:28:51.896Z,10.11
2023-03-20T20:34:01.241Z,10.05
2023-03-20T20:38:56.332Z,10.02
2023-03-20T20:44:14.602Z,10.06
2023-03-20T20:54:13.780Z,10.03
2023-03-20T20:59:05.796Z,10.00
2023-03-20T21:03:57.985Z,10.01
2023-03-20T21:08:50.136Z,9.99
2023-03-20T21:13:41.960Z,9.97
2023-03-20T21:18:34.926Z,9.97
2023-03-20T21:23:26.600Z,9.95
2023-03-20T21:28:18.277Z,9.96
2023-03-20T21:33:10.431Z,9.91
2023-03-20T21:38:47.498Z,9.92
2023-03-20T21:43:17.066Z,9.93
2023-03-20T21:59:11.795Z,9.91
2023-03-20T22:09:45.755Z,9.89
2023-03-20T22:25:08.380Z,9.87
2023-03-20T22:45:17.611Z,9.67
2023-03-20T22:50:10.423Z,9.57
2023-03-20T22:55:02.108Z,9.36
2023-03-20T22:59:53.783Z,9.20
2023-03-20T23:26:16.837Z,8.55
2023-03-20T23:31:17.237Z,8.42
2023-03-20T23:36:18.967Z,8.34
2023-03-20T23:46:24.472Z,8.18
2023-03-20T23:51:16.589Z,8.03
2023-03-20T23:56:11.798Z,7.93
